sensor_id;sensor_type;location;lat;lon;timestamp;temperature;humidity
60287;DHT22;46141;52.382;5.270;2022-09-24T00:01:20;20.40;75.00
60287;DHT22;46141;52.382;5.270;2022-09-24T00:03:55;20.40;75.00
60287;DHT22;46141;52.382;5.270;2022-09-24T00:06:21;20.40;75.00
60287;DHT22;46141;52.382;5.270;2022-09-24T00:08:49;20.40;75.00
60287;DHT22;46141;52.382;5.270;2022-09-24T00:11:16;20.40;75.00
60287;DHT22;46141;52.382;5.270;2022-09-24T00:13:42;20.40;75.00
60287;DHT22;46141;52.382;5.270;2022-09-24T00:16:10;20.40;75.00
60287;DHT22;46141;52.382;5.270;2022-09-24T00:18:37;20.30;74.90
60287;DHT22;46141;52.382;5.270;2022-09-24T00:21:21;20.40;75.00
60287;DHT22;46141;52.382;5.270;2022-09-24T00:23:55;20.40;75.10
60287;DHT22;46141;52.382;5.270;2022-09-24T00:26:21;20.40;75.10
60287;DHT22;46141;52.382;5.270;2022-09-24T00:28:51;20.40;75.10
60287;DHT22;46141;52.382;5.270;2022-09-24T00:31:17;20.30;75.10
60287;DHT22;46141;52.382;5.270;2022-09-24T00:33:43;20.40;75.20
60287;DHT22;46141;52.382;5.270;2022-09-24T00:36:09;20.40;75.10
60287;DHT22;46141;52.382;5.270;2022-09-24T00:38:35;20.30;75.20
60287;DHT22;46141;52.382;5.270;2022-09-24T00:41:01;20.30;75.10
60287;DHT22;46141;52.382;5.270;2022-09-24T00:43:33;20.30;75.20
60287;DHT22;46141;52.382;5.270;2022-09-24T00:46:21;20.30;75.20
60287;DHT22;46141;52.382;5.270;2022-09-24T00:48:51;20.30;75.20
60287;DHT22;46141;52.382;5.270;2022-09-24T00:51:22;20.30;75.20
60287;DHT22;46141;52.382;5.270;2022-09-24T00:53:51;20.30;75.20
60287;DHT22;46141;52.382;5.270;2022-09-24T00:56:20;20.30;75.20
60287;DHT22;46141;52.382;5.270;2022-09-24T00:58:50;20.30;75.20
60287;DHT22;46141;52.382;5.270;2022-09-24T01:01:19;20.30;75.20
60287;DHT22;46141;52.382;5.270;2022-09-24T01:03:48;20.30;75.20
60287;DHT22;46141;52.382;5.270;2022-09-24T01:06:15;20.30;75.20
60287;DHT22;46141;52.382;5.270;2022-09-24T01:08:41;20.30;75.20
60287;DHT22;46141;52.382;5.270;2022-09-24T01:11:56;20.30;75.30
60287;DHT22;46141;52.382;5.270;2022-09-24T01:17:17;20.40;75.30
60287;DHT22;46141;52.382;5.270;2022-09-24T01:31:41;20.20;75.40
60287;DHT22;46141;52.382;5.270;2022-09-24T01:34:10;20.20;75.40
60287;DHT22;46141;52.382;5.270;2022-09-24T01:36:39;20.30;75.40
60287;DHT22;46141;52.382;5.270;2022-09-24T01:39:08;20.20;75.30
60287;DHT22;46141;52.382;5.270;2022-09-24T01:41:36;20.20;75.30
60287;DHT22;46141;52.382;5.270;2022-09-24T01:44:04;20.20;75.20
60287;DHT22;46141;52.382;5.270;2022-09-24T01:46:30;20.20;75.20
60287;DHT22;46141;52.382;5.270;2022-09-24T01:48:56;20.20;75.10
60287;DHT22;46141;52.382;5.270;2022-09-24T01:51:29;20.20;75.20
60287;DHT22;46141;52.382;5.270;2022-09-24T01:54:09;20.20;75.10
60287;DHT22;46141;52.382;5.270;2022-09-24T01:59:46;20.20;75.20
60287;DHT22;46141;52.382;5.270;2022-09-24T02:02:22;20.20;75.10
60287;DHT22;46141;52.382;5.270;2022-09-24T02:04:58;20.20;75.00
60287;DHT22;46141;52.382;5.270;2022-09-24T02:07:55;20.20;75.10
60287;DHT22;46141;52.382;5.270;2022-09-24T02:10:22;20.20;75.00
60287;DHT22;46141;52.382;5.270;2022-09-24T02:13:04;20.10;75.00
60287;DHT22;46141;52.382;5.270;2022-09-24T02:15:34;20.10;75.00
60287;DHT22;46141;52.382;5.270;2022-09-24T02:18:09;20.10;74.90
60287;DHT22;46141;52.382;5.270;2022-09-24T02:20:41;20.10;74.90
60287;DHT22;46141;52.382;5.270;2022-09-24T02:23:10;20.10;75.00
60287;DHT22;46141;52.382;5.270;2022-09-24T02:25:49;20.10;74.90
60287;DHT22;46141;52.382;5.270;2022-09-24T02:28:17;20.10;74.90
60287;DHT22;46141;52.382;5.270;2022-09-24T02:30:49;20.10;75.00
60287;DHT22;46141;52.382;5.270;2022-09-24T02:33:17;20.10;74.90
60287;DHT22;46141;52.382;5.270;2022-09-24T02:35:44;20.10;74.90
60287;DHT22;46141;52.382;5.270;2022-09-24T02:38:17;20.10;74.80
60287;DHT22;46141;52.382;5.270;2022-09-24T02:40:42;20.10;74.80
60287;DHT22;46141;52.382;5.270;2022-09-24T02:43:08;20.10;74.80
60287;DHT22;46141;52.382;5.270;2022-09-24T02:45:33;20.10;74.80
60287;DHT22;46141;52.382;5.270;2022-09-24T02:47:59;20.10;74.80
60287;DHT22;46141;52.382;5.270;2022-09-24T02:50:24;20.10;74.80
60287;DHT22;46141;52.382;5.270;2022-09-24T02:52:50;20.10;74.80
60287;DHT22;46141;52.382;5.270;2022-09-24T02:55:15;20.10;74.80
60287;DHT22;46141;52.382;5.270;2022-09-24T02:57:41;20.00;74.80
60287;DHT22;46141;52.382;5.270;2022-09-24T03:00:07;20.10;74.80
60287;DHT22;46141;52.382;5.270;2022-09-24T03:02:33;20.10;74.70
60287;DHT22;46141;52.382;5.270;2022-09-24T03:04:58;20.10;74.80
60287;DHT22;46141;52.382;5.270;2022-09-24T03:07:24;20.00;74.80
60287;DHT22;46141;52.382;5.270;2022-09-24T03:09:49;20.00;74.70
60287;DHT22;46141;52.382;5.270;2022-09-24T03:12:15;20.10;74.70
60287;DHT22;46141;52.382;5.270;2022-09-24T03:14:40;20.00;74.70
60287;DHT22;46141;52.382;5.270;2022-09-24T03:17:06;20.00;74.70
60287;DHT22;46141;52.382;5.270;2022-09-24T03:19:31;20.00;74.70
60287;DHT22;46141;52.382;5.270;2022-09-24T03:21:56;20.00;74.80
60287;DHT22;46141;52.382;5.270;2022-09-24T03:24:22;20.00;74.80
60287;DHT22;46141;52.382;5.270;2022-09-24T03:26:47;20.00;74.70
60287;DHT22;46141;52.382;5.270;2022-09-24T03:29:13;20.00;74.70
60287;DHT22;46141;52.382;5.270;2022-09-24T03:31:38;20.00;74.80
60287;DHT22;46141;52.382;5.270;2022-09-24T03:34:04;20.00;74.70
60287;DHT22;46141;52.382;5.270;2022-09-24T03:36:29;20.00;74.70
60287;DHT22;46141;52.382;5.270;2022-09-24T03:38:56;20.00;74.70
60287;DHT22;46141;52.382;5.270;2022-09-24T03:41:23;20.00;74.70
60287;DHT22;46141;52.382;5.270;2022-09-24T03:43:48;20.00;74.70
60287;DHT22;46141;52.382;5.270;2022-09-24T03:46:14;20.00;74.80
60287;DHT22;46141;52.382;5.270;2022-09-24T03:48:40;20.00;74.70
60287;DHT22;46141;52.382;5.270;2022-09-24T03:51:09;20.00;74.60
60287;DHT22;46141;52.382;5.270;2022-09-24T03:53:35;20.00;74.70
60287;DHT22;46141;52.382;5.270;2022-09-24T03:56:00;20.00;74.60
60287;DHT22;46141;52.382;5.270;2022-09-24T03:58:26;20.00;74.70
60287;DHT22;46141;52.382;5.270;2022-09-24T04:00:53;20.00;74.70
60287;DHT22;46141;52.382;5.270;2022-09-24T04:03:19;20.00;74.70
60287;DHT22;46141;52.382;5.270;2022-09-24T04:05:45;20.00;74.60
60287;DHT22;46141;52.382;5.270;2022-09-24T04:08:10;20.00;74.70
60287;DHT22;46141;52.382;5.270;2022-09-24T04:10:36;19.90;75.30
60287;DHT22;46141;52.382;5.270;2022-09-24T04:13:01;19.90;74.70
60287;DHT22;46141;52.382;5.270;2022-09-24T04:15:27;19.90;74.60
60287;DHT22;46141;52.382;5.270;2022-09-24T04:17:54;19.90;74.60
60287;DHT22;46141;52.382;5.270;2022-09-24T04:20:22;20.00;74.70
60287;DHT22;46141;52.382;5.270;2022-09-24T04:22:49;19.90;74.70
60287;DHT22;46141;52.382;5.270;2022-09-24T04:25:15;19.90;74.60
60287;DHT22;46141;52.382;5.270;2022-09-24T04:27:42;19.90;74.70
60287;DHT22;46141;52.382;5.270;2022-09-24T04:30:09;19.90;74.50
60287;DHT22;46141;52.382;5.270;2022-09-24T04:32:35;19.90;74.70
60287;DHT22;46141;52.382;5.270;2022-09-24T04:35:00;19.90;74.60
60287;DHT22;46141;52.382;5.270;2022-09-24T04:37:26;19.90;74.60
60287;DHT22;46141;52.382;5.270;2022-09-24T04:39:51;19.90;74.60
60287;DHT22;46141;52.382;5.270;2022-09-24T04:42:17;19.90;75.00
60287;DHT22;46141;52.382;5.270;2022-09-24T04:44:43;19.90;74.70
60287;DHT22;46141;52.382;5.270;2022-09-24T04:47:08;19.90;74.70
60287;DHT22;46141;52.382;5.270;2022-09-24T04:49:34;19.90;74.70
60287;DHT22;46141;52.382;5.270;2022-09-24T04:52:00;19.90;74.70
60287;DHT22;46141;52.382;5.270;2022-09-24T04:54:25;19.90;74.60
60287;DHT22;46141;52.382;5.270;2022-09-24T04:56:51;19.90;74.70
60287;DHT22;46141;52.382;5.270;2022-09-24T04:59:16;19.90;74.60
60287;DHT22;46141;52.382;5.270;2022-09-24T05:01:42;19.90;74.50
60287;DHT22;46141;52.382;5.270;2022-09-24T05:04:07;19.90;74.60
60287;DHT22;46141;52.382;5.270;2022-09-24T05:06:33;19.90;74.60
60287;DHT22;46141;52.382;5.270;2022-09-24T05:08:58;19.90;74.50
60287;DHT22;46141;52.382;5.270;2022-09-24T05:11:24;19.90;74.50
60287;DHT22;46141;52.382;5.270;2022-09-24T05:13:49;19.90;74.70
60287;DHT22;46141;52.382;5.270;2022-09-24T05:16:15;19.80;74.50
60287;DHT22;46141;52.382;5.270;2022-09-24T05:18:40;19.80;74.60
60287;DHT22;46141;52.382;5.270;2022-09-24T05:21:06;19.80;74.50
60287;DHT22;46141;52.382;5.270;2022-09-24T05:23:31;19.80;74.60
60287;DHT22;46141;52.382;5.270;2022-09-24T05:25:57;19.80;74.60
60287;DHT22;46141;52.382;5.270;2022-09-24T05:28:22;19.80;74.60
60287;DHT22;46141;52.382;5.270;2022-09-24T05:30:48;19.80;74.60
60287;DHT22;46141;52.382;5.270;2022-09-24T05:33:13;19.80;74.60
60287;DHT22;46141;52.382;5.270;2022-09-24T05:35:39;19.80;74.60
60287;DHT22;46141;52.382;5.270;2022-09-24T05:38:04;19.80;74.60
60287;DHT22;46141;52.382;5.270;2022-09-24T05:40:30;19.80;74.60
60287;DHT22;46141;52.382;5.270;2022-09-24T05:43:03;19.80;74.50
60287;DHT22;46141;52.382;5.270;2022-09-24T05:45:31;19.80;74.60
60287;DHT22;46141;52.382;5.270;2022-09-24T05:47:57;19.80;74.60
60287;DHT22;46141;52.382;5.270;2022-09-24T05:50:22;19.80;74.60
60287;DHT22;46141;52.382;5.270;2022-09-24T05:52:48;19.80;74.50
60287;DHT22;46141;52.382;5.270;2022-09-24T05:55:13;19.80;74.50
60287;DHT22;46141;52.382;5.270;2022-09-24T05:57:39;19.80;74.50
60287;DHT22;46141;52.382;5.270;2022-09-24T06:00:06;19.80;74.50
60287;DHT22;46141;52.382;5.270;2022-09-24T06:02:32;19.80;74.50
60287;DHT22;46141;52.382;5.270;2022-09-24T06:04:57;19.80;74.50
60287;DHT22;46141;52.382;5.270;2022-09-24T06:07:23;19.70;74.60
60287;DHT22;46141;52.382;5.270;2022-09-24T06:09:48;19.70;74.50
60287;DHT22;46141;52.382;5.270;2022-09-24T06:12:14;19.70;74.50
60287;DHT22;46141;52.382;5.270;2022-09-24T06:14:39;19.70;74.70
60287;DHT22;46141;52.382;5.270;2022-09-24T06:17:05;19.70;74.50
60287;DHT22;46141;52.382;5.270;2022-09-24T06:19:30;19.70;74.50
60287;DHT22;46141;52.382;5.270;2022-09-24T06:21:56;19.70;74.50
60287;DHT22;46141;52.382;5.270;2022-09-24T06:24:21;19.70;74.50
60287;DHT22;46141;52.382;5.270;2022-09-24T06:26:47;19.70;74.50
60287;DHT22;46141;52.382;5.270;2022-09-24T06:29:12;19.70;74.50
60287;DHT22;46141;52.382;5.270;2022-09-24T06:31:38;19.70;74.50
60287;DHT22;46141;52.382;5.270;2022-09-24T06:34:03;19.70;74.50
60287;DHT22;46141;52.382;5.270;2022-09-24T06:36:29;19.70;74.50
60287;DHT22;46141;52.382;5.270;2022-09-24T06:38:54;19.80;74.40
60287;DHT22;46141;52.382;5.270;2022-09-24T06:41:20;19.80;74.30
60287;DHT22;46141;52.382;5.270;2022-09-24T06:43:45;19.70;74.30
60287;DHT22;46141;52.382;5.270;2022-09-24T06:46:11;19.70;74.40
60287;DHT22;46141;52.382;5.270;2022-09-24T06:48:36;19.80;74.40
60287;DHT22;46141;52.382;5.270;2022-09-24T06:51:03;19.70;74.40
60287;DHT22;46141;52.382;5.270;2022-09-24T06:53:29;19.80;74.50
60287;DHT22;46141;52.382;5.270;2022-09-24T06:55:56;19.80;74.10
60287;DHT22;46141;52.382;5.270;2022-09-24T06:58:22;19.80;74.50
60287;DHT22;46141;52.382;5.270;2022-09-24T07:00:58;19.80;74.70
60287;DHT22;46141;52.382;5.270;2022-09-24T07:03:25;19.80;75.00
60287;DHT22;46141;52.382;5.270;2022-09-24T07:05:51;19.80;75.20
60287;DHT22;46141;52.382;5.270;2022-09-24T07:08:17;19.70;75.40
60287;DHT22;46141;52.382;5.270;2022-09-24T07:10:44;19.80;75.50
60287;DHT22;46141;52.382;5.270;2022-09-24T07:13:11;19.80;75.50
60287;DHT22;46141;52.382;5.270;2022-09-24T07:15:38;19.80;75.50
60287;DHT22;46141;52.382;5.270;2022-09-24T07:18:03;19.80;75.50
60287;DHT22;46141;52.382;5.270;2022-09-24T07:20:29;19.80;75.50
60287;DHT22;46141;52.382;5.270;2022-09-24T07:22:54;19.80;75.60
60287;DHT22;46141;52.382;5.270;2022-09-24T07:25:20;19.80;75.70
60287;DHT22;46141;52.382;5.270;2022-09-24T07:27:45;19.80;75.80
60287;DHT22;46141;52.382;5.270;2022-09-24T07:30:11;19.80;75.90
60287;DHT22;46141;52.382;5.270;2022-09-24T07:32:37;19.80;75.90
60287;DHT22;46141;52.382;5.270;2022-09-24T07:35:03;19.80;75.90
60287;DHT22;46141;52.382;5.270;2022-09-24T07:37:28;19.80;76.00
60287;DHT22;46141;52.382;5.270;2022-09-24T07:39:54;19.80;75.80
60287;DHT22;46141;52.382;5.270;2022-09-24T07:42:19;19.80;75.80
60287;DHT22;46141;52.382;5.270;2022-09-24T07:44:45;19.80;75.70
60287;DHT22;46141;52.382;5.270;2022-09-24T07:47:10;19.80;76.00
60287;DHT22;46141;52.382;5.270;2022-09-24T07:49:36;19.80;76.10
60287;DHT22;46141;52.382;5.270;2022-09-24T07:52:01;19.80;76.20
60287;DHT22;46141;52.382;5.270;2022-09-24T07:54:27;19.80;76.30
60287;DHT22;46141;52.382;5.270;2022-09-24T07:56:53;19.80;76.40
60287;DHT22;46141;52.382;5.270;2022-09-24T07:59:18;19.80;76.50
60287;DHT22;46141;52.382;5.270;2022-09-24T08:01:43;19.80;76.40
60287;DHT22;46141;52.382;5.270;2022-09-24T08:04:09;19.80;76.40
60287;DHT22;46141;52.382;5.270;2022-09-24T08:06:35;19.80;76.40
60287;DHT22;46141;52.382;5.270;2022-09-24T08:09:01;19.80;76.40
60287;DHT22;46141;52.382;5.270;2022-09-24T08:11:27;19.80;76.40
60287;DHT22;46141;52.382;5.270;2022-09-24T08:13:55;19.80;76.40
60287;DHT22;46141;52.382;5.270;2022-09-24T08:16:21;19.80;76.40
60287;DHT22;46141;52.382;5.270;2022-09-24T08:18:47;19.80;76.40
60287;DHT22;46141;52.382;5.270;2022-09-24T08:21:13;19.80;76.40
60287;DHT22;46141;52.382;5.270;2022-09-24T08:23:38;19.80;76.30
60287;DHT22;46141;52.382;5.270;2022-09-24T08:26:04;19.80;76.30
60287;DHT22;46141;52.382;5.270;2022-09-24T08:28:30;19.80;76.30
60287;DHT22;46141;52.382;5.270;2022-09-24T08:31:01;19.80;76.30
60287;DHT22;46141;52.382;5.270;2022-09-24T08:33:27;19.80;76.30
60287;DHT22;46141;52.382;5.270;2022-09-24T08:35:54;19.80;76.10
60287;DHT22;46141;52.382;5.270;2022-09-24T08:38:19;19.90;76.20
60287;DHT22;46141;52.382;5.270;2022-09-24T08:40:55;19.80;76.30
60287;DHT22;46141;52.382;5.270;2022-09-24T08:43:48;19.80;76.20
60287;DHT22;46141;52.382;5.270;2022-09-24T08:46:28;19.90;76.30
60287;DHT22;46141;52.382;5.270;2022-09-24T08:48:56;19.80;76.40
60287;DHT22;46141;52.382;5.270;2022-09-24T08:51:23;19.90;76.40
60287;DHT22;46141;52.382;5.270;2022-09-24T08:56:34;19.90;76.70
60287;DHT22;46141;52.382;5.270;2022-09-24T08:59:11;19.90;76.90
60287;DHT22;46141;52.382;5.270;2022-09-24T09:01:54;19.90;77.00
60287;DHT22;46141;52.382;5.270;2022-09-24T09:07:13;19.90;76.90
60287;DHT22;46141;52.382;5.270;2022-09-24T09:12:39;19.90;76.80
60287;DHT22;46141;52.382;5.270;2022-09-24T09:15:21;19.90;76.70
60287;DHT22;46141;52.382;5.270;2022-09-24T09:20:30;19.90;76.80
60287;DHT22;46141;52.382;5.270;2022-09-24T09:23:04;19.90;76.60
60287;DHT22;46141;52.382;5.270;2022-09-24T09:25:35;20.00;76.60
60287;DHT22;46141;52.382;5.270;2022-09-24T09:28:11;20.00;76.70
60287;DHT22;46141;52.382;5.270;2022-09-24T09:44:25;19.90;76.60
60287;DHT22;46141;52.382;5.270;2022-09-24T09:47:21;19.90;76.60
60287;DHT22;46141;52.382;5.270;2022-09-24T09:49:52;19.90;76.60
60287;DHT22;46141;52.382;5.270;2022-09-24T09:52:23;19.90;76.60
60287;DHT22;46141;52.382;5.270;2022-09-24T09:54:50;19.90;76.60
60287;DHT22;46141;52.382;5.270;2022-09-24T09:57:19;19.90;76.60
60287;DHT22;46141;52.382;5.270;2022-09-24T09:59:52;19.90;76.60
60287;DHT22;46141;52.382;5.270;2022-09-24T10:02:41;19.90;76.60
60287;DHT22;46141;52.382;5.270;2022-09-24T10:05:20;19.90;76.60
60287;DHT22;46141;52.382;5.270;2022-09-24T10:07:46;20.00;76.60
60287;DHT22;46141;52.382;5.270;2022-09-24T10:10:21;20.00;76.40
60287;DHT22;46141;52.382;5.270;2022-09-24T10:12:47;20.00;76.30
60287;DHT22;46141;52.382;5.270;2022-09-24T10:15:18;20.00;76.40
60287;DHT22;46141;52.382;5.270;2022-09-24T10:17:47;20.00;76.70
60287;DHT22;46141;52.382;5.270;2022-09-24T10:20:31;20.00;76.60
60287;DHT22;46141;52.382;5.270;2022-09-24T10:23:02;20.00;76.70
60287;DHT22;46141;52.382;5.270;2022-09-24T10:25:30;20.00;76.70
60287;DHT22;46141;52.382;5.270;2022-09-24T10:27:59;20.00;76.70
60287;DHT22;46141;52.382;5.270;2022-09-24T10:30:25;19.90;76.60
60287;DHT22;46141;52.382;5.270;2022-09-24T10:33:00;20.00;76.70
60287;DHT22;46141;52.382;5.270;2022-09-24T10:37:55;20.00;76.70
60287;DHT22;46141;52.382;5.270;2022-09-24T10:40:25;20.00;76.80
60287;DHT22;46141;52.382;5.270;2022-09-24T10:42:57;20.00;76.80
60287;DHT22;46141;52.382;5.270;2022-09-24T10:51:27;20.00;76.80
60287;DHT22;46141;52.382;5.270;2022-09-24T10:56:41;20.00;76.80
60287;DHT22;46141;52.382;5.270;2022-09-24T11:04:58;20.00;76.80
60287;DHT22;46141;52.382;5.270;2022-09-24T11:07:53;20.00;76.70
60287;DHT22;46141;52.382;5.270;2022-09-24T11:10:38;20.00;76.80
60287;DHT22;46141;52.382;5.270;2022-09-24T11:13:27;20.00;76.60
60287;DHT22;46141;52.382;5.270;2022-09-24T11:22:10;20.10;76.50
60287;DHT22;46141;52.382;5.270;2022-09-24T11:27:45;20.10;76.40
60287;DHT22;46141;52.382;5.270;2022-09-24T11:47:27;20.10;76.80
60287;DHT22;46141;52.382;5.270;2022-09-24T11:50:16;20.10;76.70
60287;DHT22;46141;52.382;5.270;2022-09-24T11:52:52;20.10;76.80
60287;DHT22;46141;52.382;5.270;2022-09-24T11:55:24;20.10;76.80
60287;DHT22;46141;52.382;5.270;2022-09-24T11:58:14;20.10;76.80
60287;DHT22;46141;52.382;5.270;2022-09-24T12:00:48;20.10;76.80
60287;DHT22;46141;52.382;5.270;2022-09-24T12:03:31;20.20;76.80
60287;DHT22;46141;52.382;5.270;2022-09-24T12:06:20;20.10;76.60
60287;DHT22;46141;52.382;5.270;2022-09-24T12:12:20;20.20;76.60
60287;DHT22;46141;52.382;5.270;2022-09-24T12:14:48;20.20;76.60
60287;DHT22;46141;52.382;5.270;2022-09-24T12:17:31;20.30;76.50
60287;DHT22;46141;52.382;5.270;2022-09-24T12:20:17;20.30;76.60
60287;DHT22;46141;52.382;5.270;2022-09-24T12:25:49;20.30;76.40
60287;DHT22;46141;52.382;5.270;2022-09-24T12:31:34;20.30;76.40
60287;DHT22;46141;52.382;5.270;2022-09-24T12:43:51;20.40;76.20
60287;DHT22;46141;52.382;5.270;2022-09-24T12:46:33;20.40;76.10
60287;DHT22;46141;52.382;5.270;2022-09-24T12:49:00;20.40;75.80
60287;DHT22;46141;52.382;5.270;2022-09-24T12:51:35;20.40;75.90
60287;DHT22;46141;52.382;5.270;2022-09-24T14:00:50;20.50;76.10
60287;DHT22;46141;52.382;5.270;2022-09-24T14:03:51;20.50;76.20
60287;DHT22;46141;52.382;5.270;2022-09-24T14:06:41;20.50;76.10
60287;DHT22;46141;52.382;5.270;2022-09-24T14:09:31;20.50;75.80
60287;DHT22;46141;52.382;5.270;2022-09-24T14:11:59;20.50;75.90
60287;DHT22;46141;52.382;5.270;2022-09-24T14:14:28;20.60;75.60
60287;DHT22;46141;52.382;5.270;2022-09-24T14:17:10;20.60;76.10
60287;DHT22;46141;52.382;5.270;2022-09-24T14:19:37;20.60;75.80
60287;DHT22;46141;52.382;5.270;2022-09-24T14:22:08;20.60;75.80
60287;DHT22;46141;52.382;5.270;2022-09-24T14:24:44;20.70;75.70
60287;DHT22;46141;52.382;5.270;2022-09-24T14:27:17;20.70;75.70
60287;DHT22;46141;52.382;5.270;2022-09-24T14:32:28;20.70;75.60
60287;DHT22;46141;52.382;5.270;2022-09-24T14:34:58;20.70;75.50
60287;DHT22;46141;52.382;5.270;2022-09-24T14:37:35;20.70;75.50
60287;DHT22;46141;52.382;5.270;2022-09-24T14:40:11;20.70;75.50
60287;DHT22;46141;52.382;5.270;2022-09-24T14:42:45;20.70;75.50
60287;DHT22;46141;52.382;5.270;2022-09-24T14:45:35;20.70;75.40
60287;DHT22;46141;52.382;5.270;2022-09-24T14:48:28;20.70;75.30
60287;DHT22;46141;52.382;5.270;2022-09-24T14:50:54;20.70;75.40
60287;DHT22;46141;52.382;5.270;2022-09-24T14:53:27;20.70;75.40
60287;DHT22;46141;52.382;5.270;2022-09-24T14:55:53;20.70;75.40
60287;DHT22;46141;52.382;5.270;2022-09-24T14:58:31;20.70;75.30
60287;DHT22;46141;52.382;5.270;2022-09-24T15:01:00;20.80;75.40
60287;DHT22;46141;52.382;5.270;2022-09-24T15:03:49;20.80;75.00
60287;DHT22;46141;52.382;5.270;2022-09-24T15:09:18;20.80;75.30
60287;DHT22;46141;52.382;5.270;2022-09-24T15:11:37;20.80;75.20
60287;DHT22;46141;52.382;5.270;2022-09-24T15:16:44;20.90;75.00
60287;DHT22;46141;52.382;5.270;2022-09-24T15:19:16;21.00;75.00
60287;DHT22;46141;52.382;5.270;2022-09-24T15:21:43;21.00;74.90
60287;DHT22;46141;52.382;5.270;2022-09-24T15:24:09;21.00;74.80
60287;DHT22;46141;52.382;5.270;2022-09-24T15:26:38;21.00;74.70
60287;DHT22;46141;52.382;5.270;2022-09-24T15:29:05;21.00;74.70
60287;DHT22;46141;52.382;5.270;2022-09-24T15:31:31;21.10;74.60
60287;DHT22;46141;52.382;5.270;2022-09-24T15:33:56;21.10;74.50
60287;DHT22;46141;52.382;5.270;2022-09-24T15:36:22;21.10;74.40
60287;DHT22;46141;52.382;5.270;2022-09-24T15:38:59;21.10;74.40
60287;DHT22;46141;52.382;5.270;2022-09-24T15:41:24;21.10;74.40
60287;DHT22;46141;52.382;5.270;2022-09-24T15:43:50;21.10;74.20
60287;DHT22;46141;52.382;5.270;2022-09-24T15:46:20;21.10;74.20
60287;DHT22;46141;52.382;5.270;2022-09-24T15:48:45;21.20;74.20
60287;DHT22;46141;52.382;5.270;2022-09-24T15:51:15;21.10;74.50
60287;DHT22;46141;52.382;5.270;2022-09-24T15:53:41;21.10;74.80
60287;DHT22;46141;52.382;5.270;2022-09-24T15:56:07;21.10;74.20
60287;DHT22;46141;52.382;5.270;2022-09-24T15:58:33;21.10;74.10
60287;DHT22;46141;52.382;5.270;2022-09-24T16:00:59;21.20;74.20
60287;DHT22;46141;52.382;5.270;2022-09-24T16:03:29;21.20;73.70
60287;DHT22;46141;52.382;5.270;2022-09-24T16:05:56;21.20;73.60
60287;DHT22;46141;52.382;5.270;2022-09-24T16:08:22;21.30;73.30
60287;DHT22;46141;52.382;5.270;2022-09-24T16:10:48;21.30;73.20
60287;DHT22;46141;52.382;5.270;2022-09-24T16:13:15;21.40;73.00
60287;DHT22;46141;52.382;5.270;2022-09-24T16:15:42;21.50;72.70
60287;DHT22;46141;52.382;5.270;2022-09-24T16:18:12;21.40;73.00
60287;DHT22;46141;52.382;5.270;2022-09-24T16:20:39;21.40;72.90
60287;DHT22;46141;52.382;5.270;2022-09-24T16:23:08;21.40;73.40
60287;DHT22;46141;52.382;5.270;2022-09-24T16:25:36;21.50;73.80
60287;DHT22;46141;52.382;5.270;2022-09-24T16:28:01;21.50;73.80
60287;DHT22;46141;52.382;5.270;2022-09-24T16:30:27;21.50;73.90
60287;DHT22;46141;52.382;5.270;2022-09-24T16:32:52;21.40;73.80
60287;DHT22;46141;52.382;5.270;2022-09-24T16:35:18;21.40;74.10
60287;DHT22;46141;52.382;5.270;2022-09-24T16:37:43;21.40;74.10
60287;DHT22;46141;52.382;5.270;2022-09-24T16:40:09;21.40;74.10
60287;DHT22;46141;52.382;5.270;2022-09-24T16:42:36;21.40;74.10
60287;DHT22;46141;52.382;5.270;2022-09-24T16:45:01;21.30;74.10
60287;DHT22;46141;52.382;5.270;2022-09-24T16:47:27;21.40;74.30
60287;DHT22;46141;52.382;5.270;2022-09-24T16:49:53;21.40;74.10
60287;DHT22;46141;52.382;5.270;2022-09-24T16:52:18;21.30;74.10
60287;DHT22;46141;52.382;5.270;2022-09-24T16:54:44;21.30;74.20
60287;DHT22;46141;52.382;5.270;2022-09-24T16:57:09;21.30;74.20
60287;DHT22;46141;52.382;5.270;2022-09-24T16:59:35;21.30;74.10
60287;DHT22;46141;52.382;5.270;2022-09-24T17:02:00;21.30;74.70
60287;DHT22;46141;52.382;5.270;2022-09-24T17:04:26;21.30;74.70
60287;DHT22;46141;52.382;5.270;2022-09-24T17:06:55;21.20;74.50
60287;DHT22;46141;52.382;5.270;2022-09-24T17:09:21;21.20;75.00
60287;DHT22;46141;52.382;5.270;2022-09-24T17:11:47;21.20;74.70
60287;DHT22;46141;52.382;5.270;2022-09-24T17:14:13;21.20;74.50
60287;DHT22;46141;52.382;5.270;2022-09-24T17:16:41;21.10;74.40
60287;DHT22;46141;52.382;5.270;2022-09-24T17:19:07;21.10;74.40
60287;DHT22;46141;52.382;5.270;2022-09-24T17:21:34;21.10;74.50
60287;DHT22;46141;52.382;5.270;2022-09-24T17:24:00;21.10;74.60
60287;DHT22;46141;52.382;5.270;2022-09-24T17:26:26;21.00;74.90
60287;DHT22;46141;52.382;5.270;2022-09-24T17:28:53;21.00;74.70
60287;DHT22;46141;52.382;5.270;2022-09-24T17:31:21;21.00;75.10
60287;DHT22;46141;52.382;5.270;2022-09-24T17:33:57;21.00;74.90
60287;DHT22;46141;52.382;5.270;2022-09-24T17:36:24;21.00;74.60
60287;DHT22;46141;52.382;5.270;2022-09-24T17:38:50;20.90;74.60
60287;DHT22;46141;52.382;5.270;2022-09-24T17:41:16;21.00;74.50
60287;DHT22;46141;52.382;5.270;2022-09-24T17:43:41;20.90;74.70
60287;DHT22;46141;52.382;5.270;2022-09-24T17:46:10;20.90;74.70
60287;DHT22;46141;52.382;5.270;2022-09-24T17:48:39;20.90;74.60
60287;DHT22;46141;52.382;5.270;2022-09-24T17:51:23;20.90;74.70
60287;DHT22;46141;52.382;5.270;2022-09-24T17:53:50;20.90;74.60
60287;DHT22;46141;52.382;5.270;2022-09-24T17:56:18;20.80;74.40
60287;DHT22;46141;52.382;5.270;2022-09-24T17:58:45;20.80;74.50
60287;DHT22;46141;52.382;5.270;2022-09-24T18:01:14;20.80;74.50
60287;DHT22;46141;52.382;5.270;2022-09-24T18:03:40;20.80;74.50
60287;DHT22;46141;52.382;5.270;2022-09-24T18:06:09;20.80;74.50
60287;DHT22;46141;52.382;5.270;2022-09-24T18:08:36;20.80;74.60
60287;DHT22;46141;52.382;5.270;2022-09-24T18:11:10;20.80;74.50
60287;DHT22;46141;52.382;5.270;2022-09-24T18:13:36;20.80;74.60
60287;DHT22;46141;52.382;5.270;2022-09-24T18:16:11;20.70;74.60
60287;DHT22;46141;52.382;5.270;2022-09-24T18:18:38;20.80;74.40
60287;DHT22;46141;52.382;5.270;2022-09-24T18:21:07;20.80;74.60
60287;DHT22;46141;52.382;5.270;2022-09-24T18:23:34;20.70;74.60
60287;DHT22;46141;52.382;5.270;2022-09-24T18:26:14;20.70;74.40
60287;DHT22;46141;52.382;5.270;2022-09-24T18:29:37;20.70;74.60
60287;DHT22;46141;52.382;5.270;2022-09-24T18:32:03;20.70;74.60
60287;DHT22;46141;52.382;5.270;2022-09-24T18:34:29;20.70;74.60
60287;DHT22;46141;52.382;5.270;2022-09-24T18:36:54;20.70;74.50
60287;DHT22;46141;52.382;5.270;2022-09-24T18:39:20;20.70;74.70
60287;DHT22;46141;52.382;5.270;2022-09-24T18:41:45;20.70;74.70
60287;DHT22;46141;52.382;5.270;2022-09-24T18:44:11;20.70;74.70